NEODyS-2

Near Earth Objects - Dynamic Site
NEODyS ∴ Observatories ∴ Site 691 ∴ Obs & residuals
Contact »
691  ▹ 
OBSERVATIONS AND RESIDUALS

691-Steward Observatory, Kitt Peak-Spacewatch

Detections | Residuals | Detections & Residuals

[1-200] [201-400] [401-600] [601-800] [801-1000] [1001-1200] [1201-1400] [1401-1600] [1601-1800] [1801-2000] [2001-2200] [2201-2400] [2401-2600] [2601-2800] [2801-3000] [3001-3200] [3201-3400] [3401-3600] [3601-3800] [3801-4000] [4001-4200] [4201-4400] [4401-4600] [4601-4800] [4801-5000] [5001-5200] [5201-5400] [5401-5600] [5601-5800] [5801-6000] [6001-6200] [6201-6400] [6401-6600] [6601-6800] [6801-7000] [7001-7200] [7201-7400] [7401-7600] [7601-7800] [7801-8000] [8001-8200] [8201-8400] [8401-8600] [8601-8800] [8801-9000] [9001-9200] [9201-9400] [9401-9600] [9601-9800] [9801-10000] [10001-10200] [10201-10400] [10401-10600] [10601-10800] [10801-11000] [11001-11200] [11201-11400] [11401-11600] [11601-11800] [11801-12000] [12001-12200] [12201-12400] [12401-12600] [12601-12800] [12801-13000] [13001-13200] [13201-13400] [13401-13600] [13601-13800] [13801-14000] [14001-14200] [14201-14400] [14401-14600] [14601-14800] [14801-15000] [15001-15200] [15201-15400] [15401-15600] [15601-15800] [15801-16000] [16001-16200] [16201-16400] [16401-16600] [16601-16800] [16801-17000] [17001-17200] [17201-17400] [17401-17600] [17601-17800] [17801-18000] [18001-18200] [18201-18400] [18401-18600] [18601-18800] [18801-19000] [19001-19200] [19201-19400] [19401-19600] [19601-19800] [19801-20000] [20001-20200] [20201-20400] [20401-20600] [20601-20800] [20801-21000] [21001-21200] [21201-21400] [21401-21600] [21601-21800] [21801-22000] [22001-22200] [22201-22400] [22401-22600] [22601-22800] [22801-23000] [23001-23200] [23201-23400] [23401-23600] [23601-23800] [23801-24000] [24001-24200] [24201-24400] [24401-24600] [24601-24800] [24801-25000] [25001-25200] [25201-25400] [25401-25600] [25601-25800] [25801-26000] [26001-26200] [26201-26400] [26401-26600] [26601-26800] [26801-27000] [27001-27200] [27201-27400] [27401-27600] [27601-27800] [27801-28000] [28001-28200] [28201-28400] [28401-28600] [28601-28800] [28801-29000] [29001-29200] [29201-29400] [29401-29600] [29601-29800] [29801-30000] [30001-30200] [30201-30400] [30401-30600] [30601-30800] [30801-31000] [31001-31200] [31201-31400] [31401-31600] [31601-31800] [31801-32000] [32001-32200] [32201-32400] [32401-32600] [32601-32800] [32801-33000] [33001-33200] [33201-33400] [33401-33600] [33601-33800] [33801-34000] [34001-34200] [34201-34400] [34401-34600] [34601-34800] [34801-35000] [35001-35200] [35201-35400] [35401-35600] [35601-35800] [35801-36000] [36001-36200] [36201-36400] [36401-36600] [36601-36800] [36801-37000] [37001-37200] [37201-37400] [37401-37600] [37601-37800] [37801-38000] [38001-38200] [38201-38400] [38401-38600] [38601-38800] [38801-39000] [39001-39200] [39201-39400] [39401-39600] [39601-39800] [39801-40000] [40001-40200] [40201-40400] [40401-40600] [40601-40800] [40801-41000] [41001-41200] [41201-41400] [41401-41600] [41601-41800] [41801-42000] [42001-42200] [42201-42400] [42401-42600] [42601-42800] [42801-43000] [43001-43200] [43201-43400] [43401-43600] [43601-43800] [43801-44000] [44001-44200] [44201-44400] [44401-44600] [44601-44800] [44801-45000] [45001-45200] [45201-45400] [45401-45600] [45601-45800] [45801-46000] [46001-46200] [46201-46400] [46401-46600] [46601-46800] [46801-47000] [47001-47200] [47201-47400] [47401-47600] [47601-47800] [47801-48000] [48001-48200] [48201-48400] [48401-48600] [48601-48800] [48801-49000] [49001-49200] [49201-49400] [49401-49600] [49601-49800] [49801-50000] [50001-50200] [50201-50388]

Designation T Tech N Date Right Ascension Declination Apparent Magnitude Star Catalog Site code χ Used A Used M
yr-mo-day precision hr:min:sec precision rms F bias residual deg min sec precision rms F bias residual mag/col rms residual
2012TD53 O C 2012-10-20.19891 1.000E-05 02:22:05.060 1.500E-01 0.500 F -0.239 -0.256 +14° 00' 24.90" 1.000E-01 0.500 F 0.234 0.381 20.7 V 0.70 0.78 o 691 0.94 Yes Yes
2012TD53 O C 2012-10-20.21658 1.000E-05 02:22:05.120 1.500E-01 0.500 F -0.239 -0.133 +14° 01' 16.20" 1.000E-01 0.500 F 0.234 -0.009 20.5 V 0.70 0.58 o 691 0.27 Yes Yes
2012TD53 O C 2012-10-20.23425 1.000E-05 02:22:05.150 1.500E-01 0.500 F -0.239 -0.184 +14° 02' 07.70" 1.000E-01 0.500 F 0.234 -0.113 20.3 V 0.70 0.38 o 691 0.44 Yes Yes
2012TS231 O C 2012-10-20.26252 1.000E-05 02:36:00.110 1.500E-01 0.500 F -0.164 -0.347 +09° 59' 31.70" 1.000E-01 0.500 F 0.190 0.008 19.6 V 0.70 0.10 o 691 0.70 Yes Yes
2009TG10 O C 2012-10-20.26252 1.000E-05 02:35:14.780 1.500E-01 0.500 F -0.162 0.235 +09° 11' 34.10" 1.000E-01 0.500 F 0.196 -0.289 21.2 V 0.70 -0.29 o 691 0.75 Yes Yes
2009TG10 O C 2012-10-20.28021 1.000E-05 02:35:13.540 1.500E-01 0.500 F -0.162 -0.004 +09° 11' 17.10" 1.000E-01 0.500 F 0.196 -0.175 21.2 V 0.70 -0.29 o 691 0.35 Yes Yes
2012TS231 O C 2012-10-20.28021 1.000E-05 02:35:58.110 1.500E-01 0.500 F -0.164 -0.076 +09° 59' 48.90" 1.000E-01 0.500 F 0.190 -0.169 19.5 V 0.70 0.00 o 691 0.37 Yes Yes
2009TG10 O C 2012-10-20.29788 1.000E-05 02:35:12.330 1.500E-01 0.500 F -0.162 0.202 +09° 11' 00.50" 1.000E-01 0.500 F 0.196 0.328 21.1 V 0.70 -0.39 o 691 0.77 Yes Yes
2012TS231 O C 2012-10-20.29788 1.000E-05 02:35:56.070 1.500E-01 0.500 F -0.164 -0.334 +10° 00' 06.30" 1.000E-01 0.500 F 0.190 -0.061 19.6 V 0.70 0.10 o 691 0.68 Yes Yes
1999VR6 O C 2012-10-20.36784 1.000E-05 03:50:33.250 1.500E-01 0.500 F -0.025 -0.541 +18° 46' 53.50" 1.000E-01 0.500 F 0.184 -0.217 20.1 V 0.70 -0.08 o 691 1.17 Yes Yes
1999VR6 O C 2012-10-20.38551 1.000E-05 03:50:34.890 1.500E-01 0.500 F -0.025 -0.185 +18° 46' 35.60" 1.000E-01 0.500 F 0.184 -0.014 20.2 V 0.70 0.02 o 691 0.37 Yes Yes
1999VR6 O C 2012-10-20.40319 1.000E-05 03:50:36.510 1.500E-01 0.500 F -0.025 -0.138 +18° 46' 17.30" 1.000E-01 0.500 F 0.184 -0.081 20.1 V 0.70 -0.07 o 691 0.32 Yes Yes
2012QF49 O C 2012-10-21.16481 1.000E-05 02:24:03.240 1.500E-01 0.500 F -0.142 -0.250 +10° 51' 42.20" 1.000E-01 0.500 F 0.236 0.105 15.1 V 0.70 0.03 o 691 0.55 Yes Yes
2012QF49 O C 2012-10-21.18247 1.000E-05 02:23:59.490 1.500E-01 0.500 F -0.142 -0.311 +10° 53' 57.20" 1.000E-01 0.500 F 0.236 0.188 15.1 V 0.70 0.03 o 691 0.73 Yes Yes
2012QF49 O C 2012-10-21.20017 1.000E-05 02:23:55.720 1.500E-01 0.500 F -0.142 -0.146 +10° 56' 12.30" 1.000E-01 0.500 F 0.236 0.025 15.1 V 0.70 0.03 o 691 0.30 Yes Yes
2007HZ O C 2012-10-22.14753 1.000E-05 01:39:36.070 1.500E-01 0.500 F -0.082 -0.402 +10° 15' 59.00" 1.000E-01 0.500 F 0.268 0.011 18.8 V 0.70 0.54 o 691 0.81 Yes Yes
2007HZ O C 2012-10-22.16522 1.000E-05 01:39:34.930 1.500E-01 0.500 F -0.082 -0.269 +10° 15' 25.10" 1.000E-01 0.500 F 0.268 0.224 18.8 V 0.70 0.54 o 691 0.70 Yes Yes
2007HZ O C 2012-10-22.18290 1.000E-05 01:39:33.760 1.500E-01 0.500 F -0.082 -0.341 +10° 14' 50.70" 1.000E-01 0.500 F 0.268 -0.031 18.8 V 0.70 0.54 o 691 0.69 Yes Yes
2001JL1 O C 2012-10-22.32085 1.000E-05 02:54:22.780 1.500E-01 0.500 F -0.249 -0.160 +24° 12' 01.20" 1.000E-01 0.500 F 0.232 0.016 19.4 V 0.70 0.32 o 691 0.32 Yes Yes
2004VA64 O C 2012-10-22.32871 1.000E-05 02:41:31.950 1.500E-01 0.500 F -0.212 -0.121 +22° 59' 23.30" 1.000E-01 0.500 F 0.255 -0.119 20.2 V 0.70 0.07 o 691 0.34 Yes Yes
2001JL1 O C 2012-10-22.33876 1.000E-05 02:54:21.760 1.500E-01 0.500 F -0.249 -0.051 +24° 11' 42.20" 1.000E-01 0.500 F 0.232 0.007 19.3 V 0.70 0.22 o 691 0.10 Yes Yes
2004VA64 O C 2012-10-22.34652 1.000E-05 02:41:29.610 1.500E-01 0.500 F -0.212 -0.439 +22° 59' 06.10" 1.000E-01 0.500 F 0.255 -0.170 20.2 V 0.70 0.07 o 691 0.95 Yes Yes
2001JL1 O C 2012-10-22.35659 1.000E-05 02:54:20.730 1.500E-01 0.500 F -0.249 -0.130 +24° 11' 23.20" 1.000E-01 0.500 F 0.232 -0.041 19.4 V 0.70 0.32 o 691 0.27 Yes Yes
2004VA64 O C 2012-10-22.36426 1.000E-05 02:41:27.300 1.500E-01 0.500 F -0.212 -0.477 +22° 58' 49.10" 1.000E-01 0.500 F 0.255 -0.061 20.4 V 0.70 0.27 o 691 0.97 Yes Yes
2002OD20 O C 2012-10-22.37765 1.000E-05 03:21:02.070 1.500E-01 0.500 F -0.240 -0.444 +25° 26' 50.50" 1.000E-01 0.500 F 0.216 0.035 19.8 V 0.70 -0.05 o 691 0.89 Yes Yes
2002OD20 O C 2012-10-22.39534 1.000E-05 03:21:00.570 1.500E-01 0.500 F -0.240 -0.434 +25° 26' 45.90" 1.000E-01 0.500 F 0.216 -0.059 19.9 V 0.70 0.05 o 691 0.88 Yes Yes
2002OD20 O C 2012-10-22.41305 1.000E-05 03:20:59.100 1.500E-01 0.500 F -0.240 -0.006 +25° 26' 41.30" 1.000E-01 0.500 F 0.216 -0.081 20.6 V 0.70 0.76 o 691 0.16 Yes Yes
Pygmalion O C 2012-10-22.48933 1.000E-05 09:08:36.090 1.500E-01 0.500 F 0.076 -0.461 +17° 13' 33.70" 1.000E-01 0.500 F 0.193 0.311 20.6 V 0.70 0.07 o 691 1.11 Yes Yes
Pygmalion O C 2012-10-22.50198 1.000E-05 09:08:37.480 1.500E-01 0.500 F 0.076 0.098 +17° 13' 23.60" 1.000E-01 0.500 F 0.193 -0.076 20.7 V 0.70 0.17 o 691 0.25 Yes Yes
Pygmalion O C 2012-10-22.51462 1.000E-05 09:08:38.790 1.500E-01 0.500 F 0.076 -0.457 +17° 13' 14.20" 1.000E-01 0.500 F 0.193 0.236 20.5 V 0.70 -0.03 o 691 1.03 Yes Yes
2012TX284 O C 2012-10-23.42062 1.000E-05 03:46:22.510 1.500E-01 0.500 F -0.144 -0.067 +25° 49' 58.80" 1.000E-01 0.500 F 0.212 0.067 21.0 V 0.70 0.08 o 691 0.19 Yes Yes
2012TX284 O C 2012-10-23.43833 1.000E-05 03:46:20.200 1.500E-01 0.500 F -0.144 -0.033 +25° 50' 30.10" 1.000E-01 0.500 F 0.212 -0.008 21.1 V 0.70 0.18 o 691 0.07 Yes Yes
2012TX284 O C 2012-10-23.45602 1.000E-05 03:46:17.910 1.500E-01 0.500 F -0.144 0.179 +25° 51' 01.20" 1.000E-01 0.500 F 0.212 -0.159 20.9 V 0.70 -0.02 o 691 0.48 Yes Yes
2005TJ174 O C 2012-10-23.48680 1.000E-05 09:24:55.460 1.500E-01 0.500 F 0.074 -0.036 +16° 05' 22.90" 1.000E-01 0.500 F 0.306 -0.099 21.0 V 0.70 -0.24 o 691 0.21 Yes Yes
2005TJ174 O C 2012-10-23.49944 1.000E-05 09:24:56.370 1.500E-01 0.500 F 0.074 -0.317 +16° 05' 17.80" 1.000E-01 0.500 F 0.306 -0.143 21.4 V 0.70 0.16 o 691 0.70 Yes Yes
2005TJ174 O C 2012-10-23.51209 1.000E-05 09:24:57.300 1.500E-01 0.500 F 0.074 -0.303 +16° 05' 12.20" 1.000E-01 0.500 F 0.306 -0.679 21.4 V 0.70 0.16 o 691 1.49 Yes Yes
1999VR6 O C 2012-10-25.42506 1.000E-05 04:00:27.280 1.500E-01 0.500 F -0.234 -0.140 +16° 52' 35.10" 1.000E-01 0.500 F 0.155 -0.020 19.8 V 0.70 0.30 o 691 0.28 Yes Yes
1999VR6 O C 2012-10-25.44272 1.000E-05 04:00:29.530 1.500E-01 0.500 F -0.234 -0.142 +16° 52' 03.40" 1.000E-01 0.500 F 0.155 -0.169 19.7 V 0.70 0.20 o 691 0.44 Yes Yes
1999VR6 O C 2012-10-25.46040 1.000E-05 04:00:31.770 1.500E-01 0.500 F -0.234 -0.496 +16° 51' 31.40" 1.000E-01 0.500 F 0.155 -0.424 19.6 V 0.70 0.11 o 691 1.31 Yes Yes
1998UC50 O C 2012-10-25.47536 1.000E-05 09:22:42.560 1.500E-01 0.500 F 0.113 -0.103 +19° 45' 29.00" 1.000E-01 0.500 F 0.196 -0.214 19.8 V 0.70 0.17 o 691 0.48 Yes Yes
1998UC50 O C 2012-10-25.48801 1.000E-05 09:22:45.040 1.500E-01 0.500 F 0.113 -0.310 +19° 45' 17.10" 1.000E-01 0.500 F 0.196 -0.187 19.9 V 0.70 0.27 o 691 0.73 Yes Yes
1998UC50 O C 2012-10-25.50065 1.000E-05 09:22:47.530 1.500E-01 0.500 F 0.113 -0.323 +19° 45' 05.40" 1.000E-01 0.500 F 0.196 0.042 19.8 V 0.70 0.17 o 691 0.66 Yes Yes
2001JL1 O C 2012-10-26.31330 1.000E-05 02:50:32.610 1.500E-01 0.500 F -0.221 -0.791 +22° 57' 09.20" 1.000E-01 0.500 F 0.259 -0.156 19.6 V 0.70 0.73 o 691 1.62 Yes Yes
2012TA219 O C 2012-10-26.31577 1.000E-05 02:59:36.080 1.500E-01 0.500 F -0.195 -0.973 +22° 36' 14.70" 1.000E-01 0.500 F 0.307 0.388 20.0 V 0.70 0.68 o 691 2.11 Yes Yes
2001JL1 O C 2012-10-26.33119 1.000E-05 02:50:31.440 1.500E-01 0.500 F -0.221 -1.121 +22° 56' 47.60" 1.000E-01 0.500 F 0.259 -0.511 19.3 V 0.70 0.43 o 691 2.47 Yes Yes
2012TA219 O C 2012-10-26.33365 1.000E-05 02:59:34.240 1.500E-01 0.500 F -0.195 0.056 +22° 36' 38.70" 1.000E-01 0.500 F 0.307 0.536 19.7 V 0.70 0.38 o 691 1.09 Yes Yes
2001JL1 O C 2012-10-26.34889 1.000E-05 02:50:30.350 1.500E-01 0.500 F -0.221 -0.507 +22° 56' 27.00" 1.000E-01 0.500 F 0.259 -0.048 19.2 V 0.70 0.33 o 691 1.02 Yes Yes
2012TA219 O C 2012-10-26.35136 1.000E-05 02:59:32.310 1.500E-01 0.500 F -0.195 -0.390 +22° 37' 01.90" 1.000E-01 0.500 F 0.307 0.152 19.8 V 0.70 0.48 o 691 0.84 Yes Yes
2012VJ6 O C 2012-11-04.16793 1.000E-05 02:50:27.130 1.500E-01 0.500 F -0.131 -0.068 +25° 48' 41.10" 1.000E-01 0.500 F 0.221 0.364 20.9 V 0.70 -0.01 o 691 0.75 Yes Yes
2004UB O C 2012-11-04.17040 1.000E-05 03:03:43.090 1.500E-01 0.612 F -0.196 -0.623 +26° 23' 12.20" 1.000E-01 0.612 F 0.290 0.026 19.6 V 0.70 0.43 o 691 1.02 Yes Yes
2004UB O C 2012-11-04.17287 1.000E-05 03:03:42.420 1.500E-01 0.612 F -0.196 -0.512 +26° 23' 05.70" 1.000E-01 0.612 F 0.290 -0.208 19.3 V 0.70 0.13 o 691 0.91 Yes Yes
2012VJ6 O C 2012-11-04.17806 1.000E-05 02:50:26.050 1.500E-01 0.500 F -0.131 -0.496 +25° 48' 39.80" 1.000E-01 0.500 F 0.221 -0.403 20.7 V 0.70 -0.21 o 691 1.29 Yes Yes
2004UB O C 2012-11-04.18053 1.000E-05 03:03:40.340 1.500E-01 0.612 F -0.196 -0.176 +26° 22' 46.40" 1.000E-01 0.612 F 0.290 -0.067 19.5 V 0.70 0.33 o 691 0.31 Yes Yes
2004UB O C 2012-11-04.18300 1.000E-05 03:03:39.670 1.500E-01 0.612 F -0.196 -0.051 +26° 22' 40.00" 1.000E-01 0.612 F 0.290 -0.196 19.6 V 0.70 0.43 o 691 0.33 Yes Yes
2012VJ6 O C 2012-11-04.18818 1.000E-05 02:50:25.010 1.500E-01 0.500 F -0.131 -0.373 +25° 48' 39.60" 1.000E-01 0.500 F 0.221 -0.059 20.9 V 0.70 -0.01 o 691 0.77 Yes Yes
2004UB O C 2012-11-04.19065 1.000E-05 03:03:37.540 1.500E-01 0.612 F -0.196 -0.386 +26° 22' 20.70" 1.000E-01 0.612 F 0.290 -0.064 19.4 V 0.70 0.23 o 691 0.64 Yes Yes
2004UB O C 2012-11-04.19312 1.000E-05 03:03:36.880 1.500E-01 0.612 F -0.196 -0.116 +26° 22' 14.50" 1.000E-01 0.612 F 0.290 0.012 19.5 V 0.70 0.33 o 691 0.19 Yes Yes
1998XB O C 2012-11-04.48354 1.000E-05 11:23:26.990 1.500E-01 0.500 F 0.170 0.406 +12° 56' 33.40" 1.000E-01 0.500 F 0.229 -0.031 19.7 V 0.70 0.72 o 691 0.81 Yes Yes
1998XB O C 2012-11-04.49620 1.000E-05 11:23:29.520 1.500E-01 0.500 F 0.170 -0.393 +12° 56' 22.70" 1.000E-01 0.500 F 0.229 0.033 19.9 V 0.70 0.92 o 691 0.79 Yes Yes
1998XB O C 2012-11-04.50884 1.000E-05 11:23:32.080 1.500E-01 0.500 F 0.170 -0.665 +12° 56' 12.10" 1.000E-01 0.500 F 0.229 0.185 19.8 V 0.70 0.82 o 691 1.38 Yes Yes
2006WN1 O C 2012-11-05.20775 1.000E-05 03:57:30.900 1.500E-01 0.500 F -0.176 -0.164 +22° 22' 49.70" 1.000E-01 0.500 F 0.165 -0.065 19.2 V 0.70 -0.01 o 691 0.35 Yes Yes
2006WN1 O C 2012-11-05.22893 1.000E-05 03:57:29.060 1.500E-01 0.500 F -0.176 0.719 +22° 22' 37.30" 1.000E-01 0.500 F 0.165 0.834 19.1 V 0.70 -0.11 o 691 2.20 Yes Yes
2006WN1 O C 2012-11-05.24662 1.000E-05 03:57:27.410 1.500E-01 0.500 F -0.176 0.020 +22° 22' 25.20" 1.000E-01 0.500 F 0.165 -0.107 19.3 V 0.70 0.09 o 691 0.22 Yes Yes
Akka O C 2012-11-05.27256 1.000E-05 04:36:38.590 1.500E-01 0.500 F -0.162 -0.678 +21° 49' 07.80" 1.000E-01 0.500 F 0.188 -0.059 20.6 V 0.70 0.83 o 691 1.36 Yes Yes
2006UP O C 2012-11-05.27765 1.000E-05 04:27:33.320 1.500E-01 0.500 F -0.198 0.278 +21° 15' 08.80" 1.000E-01 0.500 F 0.201 0.587 21.2 V 0.70 0.95 o 691 1.30 Yes Yes
Akka O C 2012-11-05.29025 1.000E-05 04:36:36.990 1.500E-01 0.500 F -0.162 -0.110 +21° 49' 03.10" 1.000E-01 0.500 F 0.188 -0.110 20.3 V 0.70 0.53 o 691 0.31 Yes Yes
2006UP O C 2012-11-05.29879 1.000E-05 04:27:33.660 1.500E-01 0.500 F -0.198 -0.376 +21° 15' 32.40" 1.000E-01 0.500 F 0.201 -0.312 20.4 V 0.70 0.15 o 691 0.98 Yes Yes
Akka O C 2012-11-05.31140 1.000E-05 04:36:35.020 1.500E-01 0.500 F -0.162 -0.147 +21° 48' 57.80" 1.000E-01 0.500 F 0.188 0.194 19.7 V 0.70 -0.07 o 691 0.49 Yes Yes
2006UP O C 2012-11-05.31649 1.000E-05 04:27:33.970 1.500E-01 0.500 F -0.198 -0.247 +21° 15' 53.20" 1.000E-01 0.500 F 0.201 0.203 20.6 V 0.70 0.35 o 691 0.64 Yes Yes
2012VZ25 O C 2012-11-05.38308 1.000E-05 05:16:56.320 1.500E-01 0.500 F -0.223 -0.281 +29° 29' 47.90" 1.000E-01 0.500 F 0.205 -0.083 19.5 V 0.70 0.20 o 691 0.59 Yes Yes
2012VZ25 O C 2012-11-05.40102 1.000E-05 05:16:54.340 1.500E-01 0.500 F -0.223 -0.135 +29° 29' 56.30" 1.000E-01 0.500 F 0.205 0.101 19.4 V 0.70 0.10 o 691 0.34 Yes Yes
2012VZ25 O C 2012-11-05.41959 1.000E-05 05:16:52.270 1.500E-01 0.500 F -0.223 -0.233 +29° 30' 04.60" 1.000E-01 0.500 F 0.205 -0.009 19.3 V 0.70 0.00 o 691 0.48 Yes Yes
Nefertiti O C 2012-11-05.49851 1.000E-05 11:37:12.530 1.500E-01 0.500 F 0.063 -0.221 +17° 39' 55.20" 1.000E-01 0.500 F 0.263 0.022 18.7 V 0.70 0.35 o 691 0.44 Yes Yes
Nefertiti O C 2012-11-05.51116 1.000E-05 11:37:13.860 1.500E-01 0.500 F 0.063 -0.178 +17° 39' 39.40" 1.000E-01 0.500 F 0.263 -0.069 18.6 V 0.70 0.25 o 691 0.38 Yes Yes
Nefertiti O C 2012-11-05.52380 1.000E-05 11:37:15.140 1.500E-01 0.500 F 0.063 -0.809 +17° 39' 24.00" 1.000E-01 0.500 F 0.263 0.232 18.4 V 0.70 0.05 o 691 1.68 Yes Yes
2005JU1 O C 2012-11-06.09053 1.000E-05 01:21:45.670 1.500E-01 0.500 F -0.232 0.130 +09° 40' 08.80" 1.000E-01 0.500 F 0.240 -0.439 20.5 V 0.70 -0.45 o 691 0.92 Yes Yes
2005JU1 O C 2012-11-06.13002 1.000E-05 01:21:45.320 1.500E-01 0.500 F -0.232 0.235 +09° 40' 40.50" 1.000E-01 0.500 F 0.240 -0.422 20.9 V 0.70 -0.05 o 691 0.97 Yes Yes
2005JU1 O C 2012-11-06.15705 1.000E-05 01:21:45.030 1.500E-01 0.500 F -0.232 -0.007 +09° 41' 02.40" 1.000E-01 0.500 F 0.240 -0.079 20.4 V 0.70 -0.55 o 691 0.16 Yes Yes
2012VB20 O C 2012-11-06.21066 1.000E-05 03:51:29.950 1.500E-01 0.500 F -0.197 -0.316 +24° 12' 55.70" 1.000E-01 0.500 F 0.270 0.033 19.0 V 0.70 0.49 o 691 0.67 Yes Yes
2012VB20 O C 2012-11-06.22835 1.000E-05 03:51:31.020 1.500E-01 0.500 F -0.197 -0.533 +24° 11' 31.00" 1.000E-01 0.500 F 0.270 -0.231 18.9 V 0.70 0.38 o 691 1.22 Yes Yes
2012VB20 O C 2012-11-06.24606 1.000E-05 03:51:32.030 1.500E-01 0.500 F -0.197 -0.131 +24° 10' 06.70" 1.000E-01 0.500 F 0.270 0.150 19.2 V 0.70 0.67 o 691 0.41 Yes Yes
2012VF26 O C 2012-11-07.21642 1.000E-05 04:06:54.010 1.500E-01 0.500 F -0.174 -0.383 +13° 36' 19.00" 1.000E-01 0.500 F 0.108 -0.290 20.5 V 0.70 0.42 o 691 0.98 Yes Yes
2012VF26 O C 2012-11-07.23705 1.000E-05 04:06:59.540 1.500E-01 0.500 F -0.174 -0.549 +13° 37' 32.10" 1.000E-01 0.500 F 0.108 -0.002 20.4 V 0.70 0.32 o 691 1.12 Yes Yes
2012VF26 O C 2012-11-07.25473 1.000E-05 04:07:04.260 1.500E-01 0.500 F -0.174 -0.367 +13° 38' 34.20" 1.000E-01 0.500 F 0.108 -0.123 20.3 V 0.70 0.22 o 691 0.79 Yes Yes
2002PC11 O C 2012-11-07.38126 1.000E-05 05:11:25.140 1.500E-01 0.500 F -0.109 0.079 +21° 04' 36.10" 1.000E-01 0.500 F 0.224 0.000 19.6 V 0.70 -0.08 o 691 0.16 Yes Yes
2002PC11 O C 2012-11-07.39678 1.000E-05 05:11:24.620 1.500E-01 0.500 F -0.109 -0.060 +21° 04' 26.60" 1.000E-01 0.500 F 0.224 -0.151 19.9 V 0.70 0.22 o 691 0.33 Yes Yes
2002PC11 O C 2012-11-07.40946 1.000E-05 05:11:24.170 1.500E-01 0.500 F -0.109 -0.518 +21° 04' 19.10" 1.000E-01 0.500 F 0.224 0.031 19.8 V 0.70 0.12 o 691 1.06 Yes Yes
2001XS30 O C 2012-11-13.31861 1.000E-05 04:59:42.900 1.500E-01 0.500 F -0.216 -0.061 +29° 45' 42.80" 1.000E-01 0.500 F 0.164 -0.036 20.2 V 0.70 0.07 o 691 0.14 Yes Yes
2001XS30 O C 2012-11-13.33658 1.000E-05 04:59:39.720 1.500E-01 0.500 F -0.216 -0.086 +29° 45' 32.20" 1.000E-01 0.500 F 0.164 -0.090 20.0 V 0.70 -0.13 o 691 0.25 Yes Yes
2001XS30 O C 2012-11-13.35192 1.000E-05 04:59:36.980 1.500E-01 0.500 F -0.216 -0.417 +29° 45' 24.70" 1.000E-01 0.500 F 0.164 1.454 20.6 V 0.70 0.47 o 691 3.03 Yes Yes
Itokawa O C 2012-11-13.37196 1.000E-05 05:46:50.270 1.500E-01 0.500 F -0.099 -0.406 +23° 15' 44.70" 1.000E-01 0.500 F 0.214 0.147 20.4 V 0.70 -0.10 o 691 0.86 Yes Yes
Itokawa O C 2012-11-13.41100 1.000E-05 05:46:47.650 1.500E-01 0.500 F -0.099 -0.411 +23° 15' 46.70" 1.000E-01 0.500 F 0.214 -0.366 20.6 V 0.70 0.10 o 691 1.10 Yes Yes
Itokawa O C 2012-11-13.42375 1.000E-05 05:46:46.720 1.500E-01 0.500 F -0.099 -1.417 +23° 15' 47.40" 1.000E-01 0.500 F 0.214 -0.436 20.9 V 0.70 0.40 o 691 2.97 Yes Yes
2004XH29 O C 2012-11-14.18120 1.000E-05 03:53:01.040 1.500E-01 0.500 F -0.179 -0.048 +17° 01' 48.50" 1.000E-01 0.500 F 0.178 -0.302 20.3 V 0.70 0.03 o 691 0.61 Yes Yes
2004XH29 O C 2012-11-14.19906 1.000E-05 03:52:58.820 1.500E-01 0.500 F -0.179 -0.017 +17° 01' 25.30" 1.000E-01 0.500 F 0.178 0.151 20.0 V 0.70 -0.27 o 691 0.30 Yes Yes
2004XH29 O C 2012-11-14.21692 1.000E-05 03:52:56.580 1.500E-01 0.500 F -0.179 -0.187 +17° 01' 01.30" 1.000E-01 0.500 F 0.178 -0.165 20.0 V 0.70 -0.27 o 691 0.49 Yes Yes
2012UZ33 O C 2012-11-14.22661 1.000E-05 04:23:56.650 1.500E-01 0.500 F -0.159 -0.107 +18° 16' 47.20" 1.000E-01 0.500 F 0.243 -0.122 21.3 V 0.70 0.51 o 691 0.33 Yes Yes
2012UZ33 O C 2012-11-14.24447 1.000E-05 04:23:54.610 1.500E-01 0.500 F -0.159 0.180 +18° 16' 45.50" 1.000E-01 0.500 F 0.243 -0.320 21.1 V 0.70 0.31 o 691 0.74 Yes Yes
2012UZ33 O C 2012-11-14.26234 1.000E-05 04:23:52.490 1.500E-01 0.500 F -0.159 -0.592 +18° 16' 43.90" 1.000E-01 0.500 F 0.243 -0.387 21.0 V 0.70 0.21 o 691 1.43 Yes Yes
2003SL215 O C 2012-11-17.16120 1.000E-05 03:45:29.890 1.500E-01 0.500 F -0.140 -0.018 +22° 37' 50.10" 1.000E-01 0.500 F 0.274 -0.170 o 691 0.35 Yes No
2006WN1 O C 2012-11-17.16887 1.000E-05 03:40:36.360 1.500E-01 0.500 F -0.156 -0.288 +20° 13' 52.30" 1.000E-01 0.500 F 0.148 0.061 o 691 0.59 Yes No
2003SL215 O C 2012-11-17.17654 1.000E-05 03:45:29.820 1.500E-01 0.500 F -0.140 -0.184 +22° 37' 31.10" 1.000E-01 0.500 F 0.274 -0.078 o 691 0.40 Yes No
2006WN1 O C 2012-11-17.18420 1.000E-05 03:40:35.110 1.500E-01 0.500 F -0.156 0.137 +20° 13' 42.90" 1.000E-01 0.500 F 0.148 -0.136 o 691 0.39 Yes No
2003SL215 O C 2012-11-17.19187 1.000E-05 03:45:29.740 1.500E-01 0.500 F -0.140 -0.362 +22° 37' 12.10" 1.000E-01 0.500 F 0.274 0.042 o 691 0.74 Yes No
2006WN1 O C 2012-11-17.19953 1.000E-05 03:40:33.800 1.500E-01 0.500 F -0.156 -0.208 +20° 13' 33.80" 1.000E-01 0.500 F 0.148 -0.006 o 691 0.42 Yes No
Akka O C 2012-11-17.22068 1.000E-05 04:17:17.060 1.500E-01 0.500 F -0.211 -0.374 +20° 47' 49.00" 1.000E-01 0.500 F 0.220 -0.193 o 691 0.84 Yes No
Akka O C 2012-11-17.23868 1.000E-05 04:17:15.210 1.500E-01 0.500 F -0.211 -0.067 +20° 47' 43.30" 1.000E-01 0.500 F 0.220 -0.059 o 691 0.18 Yes No
Akka O C 2012-11-17.25666 1.000E-05 04:17:13.390 1.500E-01 0.500 F -0.211 0.689 +20° 47' 35.90" 1.000E-01 0.500 F 0.220 -1.600 o 691 3.48 No No
2001XS30 O C 2012-11-17.27052 1.000E-05 04:48:03.400 1.500E-01 0.500 F -0.120 -0.273 +29° 03' 23.70" 1.000E-01 0.500 F 0.261 -0.056 o 691 0.56 Yes No
2001XS30 O C 2012-11-17.28848 1.000E-05 04:48:00.140 1.500E-01 0.500 F -0.120 0.028 +29° 03' 11.10" 1.000E-01 0.500 F 0.261 -0.394 o 691 0.79 Yes No
2001XS30 O C 2012-11-17.30646 1.000E-05 04:47:56.750 1.500E-01 0.500 F -0.120 -1.287 +29° 02' 58.90" 1.000E-01 0.500 F 0.261 -0.271 o 691 2.63 Yes No
2006WN1 O C 2012-11-22.15927 1.000E-05 03:34:19.970 1.500E-01 0.500 F -0.186 -0.162 +19° 24' 14.80" 1.000E-01 0.500 F 0.205 0.056 19.2 V 0.70 0.00 o 691 0.34 Yes Yes
2006WN1 O C 2012-11-22.17697 1.000E-05 03:34:18.640 1.500E-01 0.500 F -0.186 -0.330 +19° 24' 05.30" 1.000E-01 0.500 F 0.205 0.348 19.1 V 0.70 -0.10 o 691 0.96 Yes Yes
2006WN1 O C 2012-11-22.19465 1.000E-05 03:34:17.330 1.500E-01 0.500 F -0.186 -0.151 +19° 23' 55.10" 1.000E-01 0.500 F 0.205 -0.037 19.2 V 0.70 0.00 o 691 0.31 Yes Yes
Akka O C 2012-11-22.21958 1.000E-05 04:08:54.880 1.500E-01 0.500 F -0.208 -0.151 +20° 19' 28.70" 1.000E-01 0.500 F 0.154 0.030 19.6 V 0.70 0.22 o 691 0.31 Yes Yes
Akka O C 2012-11-22.23726 1.000E-05 04:08:53.070 1.500E-01 0.500 F -0.208 -0.188 +20° 19' 22.70" 1.000E-01 0.500 F 0.154 -0.050 19.7 V 0.70 0.32 o 691 0.39 Yes Yes
Akka O C 2012-11-22.25496 1.000E-05 04:08:51.260 1.500E-01 0.500 F -0.208 -0.154 +20° 19' 16.70" 1.000E-01 0.500 F 0.154 -0.093 20.1 V 0.70 0.72 o 691 0.36 Yes Yes
2001XS30 O C 2012-11-22.27245 1.000E-05 04:32:56.110 1.500E-01 0.500 F -0.052 -0.571 +28° 00' 45.70" 1.000E-01 0.500 F 0.108 -0.180 20.2 V 0.70 0.35 o 691 1.20 Yes Yes
2012WB25 O C 2012-11-22.27739 1.000E-05 04:50:50.490 1.500E-01 0.500 F -0.176 -1.078 +26° 33' 05.50" 1.000E-01 0.500 F 0.282 0.367 20.7 V 0.70 0.11 o 691 2.30 Yes Yes
2001XS30 O C 2012-11-22.29014 1.000E-05 04:32:52.810 1.500E-01 0.500 F -0.052 -0.924 +28° 00' 31.20" 1.000E-01 0.500 F 0.108 -0.495 20.1 V 0.70 0.25 o 691 2.10 Yes Yes
2012WB25 O C 2012-11-22.29508 1.000E-05 04:50:48.580 1.500E-01 0.500 F -0.176 -0.274 +26° 33' 10.70" 1.000E-01 0.500 F 0.282 -0.086 20.5 V 0.70 -0.09 o 691 0.58 Yes Yes
2001XS30 O C 2012-11-22.30783 1.000E-05 04:32:49.560 1.500E-01 0.500 F -0.052 -0.596 +28° 00' 17.30" 1.000E-01 0.500 F 0.108 -0.163 20.2 V 0.70 0.36 o 691 1.24 Yes Yes
2012WB25 O C 2012-11-22.31277 1.000E-05 04:50:46.620 1.500E-01 0.500 F -0.176 -0.093 +26° 33' 16.40" 1.000E-01 0.500 F 0.282 0.008 20.3 V 0.70 -0.28 o 691 0.19 Yes Yes
Tatsunokingo O C 2012-11-22.31988 1.000E-05 04:58:15.350 1.500E-01 0.500 F -0.268 -0.537 +29° 37' 19.50" 1.000E-01 0.500 F 0.194 0.010 20.2 V 0.70 0.10 o 691 1.06 Yes Yes
Tatsunokingo O C 2012-11-22.33764 1.000E-05 04:58:13.450 1.500E-01 0.500 F -0.268 -1.131 +29° 37' 27.70" 1.000E-01 0.500 F 0.194 0.758 20.8 V 0.70 0.70 o 691 2.72 Yes Yes
Tatsunokingo O C 2012-11-22.35602 1.000E-05 04:58:11.530 1.500E-01 0.500 F -0.268 -1.123 +29° 37' 34.30" 1.000E-01 0.500 F 0.194 -0.302 19.7 V 0.70 -0.40 o 691 2.32 Yes Yes
2012TM139 O C 2012-11-23.11536 1.000E-05 02:39:17.220 1.500E-01 0.500 F -0.165 0.066 +24° 17' 55.10" 1.000E-01 0.500 F 0.238 -0.045 20.8 V 0.70 0.31 o 691 0.16 Yes Yes
2012TM139 O C 2012-11-23.13971 1.000E-05 02:39:16.240 1.500E-01 0.500 F -0.165 0.087 +24° 17' 39.10" 1.000E-01 0.500 F 0.238 -0.182 20.6 V 0.70 0.11 o 691 0.40 Yes Yes
2012TM139 O C 2012-11-23.15492 1.000E-05 02:39:15.580 1.500E-01 0.500 F -0.165 -0.481 +24° 17' 29.40" 1.000E-01 0.500 F 0.238 0.065 21.2 V 0.70 0.70 o 691 0.98 Yes Yes
2012UZ33 O C 2012-11-23.22557 1.000E-05 04:07:33.050 1.500E-01 0.500 F -0.198 -0.253 +18° 01' 38.50" 1.000E-01 0.500 F 0.210 0.235 20.6 V 0.70 -0.06 o 691 0.70 Yes Yes
2012UZ33 O C 2012-11-23.24073 1.000E-05 04:07:31.400 1.500E-01 0.500 F -0.198 -0.557 +18° 01' 36.60" 1.000E-01 0.500 F 0.210 -0.220 20.6 V 0.70 -0.05 o 691 1.22 Yes Yes
2012UZ33 O C 2012-11-23.25593 1.000E-05 04:07:29.750 1.500E-01 0.500 F -0.198 -0.774 +18° 01' 36.50" 1.000E-01 0.500 F 0.210 1.149 20.3 V 0.70 -0.35 o 691 2.80 Yes Yes
2000ER70 O C 2012-11-23.50490 1.000E-05 11:41:40.840 1.500E-01 0.500 F 0.075 -0.359 +13° 44' 10.30" 1.000E-01 0.500 F 0.159 0.217 19.9 V 0.70 0.05 o 691 0.84 Yes Yes
2000ER70 O C 2012-11-23.51755 1.000E-05 11:41:43.270 1.500E-01 0.500 F 0.075 -0.306 +13° 44' 18.70" 1.000E-01 0.500 F 0.159 -0.031 19.7 V 0.70 -0.15 o 691 0.62 Yes Yes
2000ER70 O C 2012-11-23.53019 1.000E-05 11:41:45.700 1.500E-01 0.500 F 0.075 -0.203 +13° 44' 27.50" 1.000E-01 0.500 F 0.159 0.134 19.4 V 0.70 -0.45 o 691 0.49 Yes Yes
2012WC25 O C 2012-11-24.22942 1.000E-05 04:17:32.080 1.500E-01 0.500 F -0.319 -0.363 +24° 23' 26.50" 1.000E-01 0.500 F 0.325 0.272 20.8 V 0.70 0.36 o 691 0.95 Yes Yes
2012WC25 O C 2012-11-24.24712 1.000E-05 04:17:32.240 1.500E-01 0.500 F -0.319 -0.485 +24° 24' 26.90" 1.000E-01 0.500 F 0.325 0.628 20.8 V 0.70 0.36 o 691 1.66 Yes Yes
2012WC25 O C 2012-11-24.26482 1.000E-05 04:17:32.400 1.500E-01 0.500 F -0.319 -0.454 +24° 25' 26.20" 1.000E-01 0.500 F 0.325 0.046 20.6 V 0.70 0.16 o 691 0.96 Yes Yes
2012TQ139 O C 2012-11-24.27211 1.000E-05 04:33:16.310 1.500E-01 0.500 F -0.134 -0.320 +22° 04' 11.50" 1.000E-01 0.500 F 0.183 0.017 19.8 V 0.70 0.31 o 691 0.66 Yes Yes
2012TQ139 O C 2012-11-24.28981 1.000E-05 04:33:15.250 1.500E-01 0.500 F -0.134 0.070 +22° 04' 36.00" 1.000E-01 0.500 F 0.183 -0.375 19.7 V 0.70 0.21 o 691 0.79 Yes Yes
2012TQ139 O C 2012-11-24.30751 1.000E-05 04:33:14.120 1.500E-01 0.500 F -0.134 -0.438 +22° 05' 01.00" 1.000E-01 0.500 F 0.183 -0.119 19.7 V 0.70 0.21 o 691 0.94 Yes Yes
2012VF37 O C 2012-11-25.19042 1.000E-05 04:01:22.190 1.500E-01 0.500 F -0.176 -0.114 +12° 28' 10.50" 1.000E-01 0.500 F 0.095 -0.306 19.3 V 0.70 0.14 o 691 0.65 Yes Yes
2012VF37 O C 2012-11-25.20810 1.000E-05 04:01:20.640 1.500E-01 0.500 F -0.176 -0.289 +12° 28' 11.90" 1.000E-01 0.500 F 0.095 -0.052 19.6 V 0.70 0.44 o 691 0.59 Yes Yes
2012VF37 O C 2012-11-25.22578 1.000E-05 04:01:19.090 1.500E-01 0.500 F -0.176 -0.246 +12° 28' 12.90" 1.000E-01 0.500 F 0.095 -0.140 19.5 V 0.70 0.34 o 691 0.57 Yes Yes
2006WN1 O C 2012-12-04.17955 1.000E-05 03:22:58.860 1.500E-01 0.500 F -0.214 -0.351 +17° 46' 29.60" 1.000E-01 0.500 F 0.360 -0.222 o 691 0.83 Yes No
2006WN1 O C 2012-12-04.24850 1.000E-05 03:22:55.710 1.500E-01 0.500 F -0.214 -0.165 +17° 46' 02.70" 1.000E-01 0.500 F 0.360 -0.053 o 691 0.35 Yes No
2006WN1 O C 2012-12-04.31750 1.000E-05 03:22:52.550 1.500E-01 0.500 F -0.214 -0.289 +17° 45' 34.90" 1.000E-01 0.500 F 0.360 -0.258 o 691 0.77 Yes No
2008YU32 O C H 2012-12-04.39130 1.000E-05 07:12:55.310 1.500E-01 0.500 F -0.057 0.567 +17° 58' 37.50" 1.000E-01 0.500 F 0.163 -1.037 o 691 2.38 Yes No
2008YU32 O C H 2012-12-04.40899 1.000E-05 07:12:52.590 1.500E-01 0.500 F -0.057 0.159 +17° 58' 38.60" 1.000E-01 0.500 F 0.163 -1.029 o 691 2.10 Yes No
2011DL19 O C H 2012-12-04.44266 1.000E-05 07:17:07.480 1.500E-01 0.500 F -0.104 0.164 +29° 47' 11.10" 1.000E-01 0.500 F 0.174 -0.817 o 691 1.67 Yes No
2001HH31 O C 2012-12-04.44760 1.000E-05 07:36:33.890 1.500E-01 0.500 F -0.126 -0.264 +30° 10' 17.00" 1.000E-01 0.500 F 0.213 0.163 o 691 0.62 Yes No
2011DL19 O C H 2012-12-04.46035 1.000E-05 07:17:06.140 1.500E-01 0.500 F -0.104 0.590 +29° 46' 53.50" 1.000E-01 0.500 F 0.174 -0.384 o 691 1.42 Yes No
2001HH31 O C 2012-12-04.46529 1.000E-05 07:36:32.760 1.500E-01 0.500 F -0.126 -0.090 +30° 10' 36.40" 1.000E-01 0.500 F 0.213 0.050 o 691 0.21 Yes No
2011DL19 O C H 2012-12-04.47803 1.000E-05 07:17:04.790 1.500E-01 0.500 F -0.104 0.858 +29° 46' 35.10" 1.000E-01 0.500 F 0.174 -0.696 o 691 2.22 Yes No
2001HH31 O C 2012-12-04.48297 1.000E-05 07:36:31.610 1.500E-01 0.500 F -0.126 -0.201 +30° 10' 56.20" 1.000E-01 0.500 F 0.213 0.410 o 691 0.91 Yes No
2012TM139 O C 2012-12-05.09727 1.000E-05 02:35:07.910 1.500E-01 0.500 F -0.221 0.127 +22° 21' 21.50" 1.000E-01 0.500 F 0.288 0.117 o 691 0.35 Yes No
2006XA O C H 2012-12-05.09986 1.000E-05 02:35:40.410 1.500E-01 0.500 F -0.312 0.350 +20° 39' 46.10" 1.000E-01 0.500 F 0.309 -0.770 o 691 1.70 Yes No
2001JW2 O C 2012-12-05.10506 1.000E-05 02:38:35.550 1.500E-01 0.500 F -0.346 -0.161 +16° 49' 39.40" 1.000E-01 0.500 F 0.287 0.123 o 691 0.41 Yes No
2012TM139 O C 2012-12-05.17432 1.000E-05 02:35:07.180 1.500E-01 0.500 F -0.221 -0.268 +22° 20' 44.80" 1.000E-01 0.500 F 0.288 0.214 o 691 0.69 Yes No
2006XA O C H 2012-12-05.17692 1.000E-05 02:35:35.690 1.500E-01 0.500 F -0.312 0.089 +20° 39' 07.30" 1.000E-01 0.500 F 0.309 -1.107 o 691 2.23 Yes No
2001JW2 O C 2012-12-05.18212 1.000E-05 02:38:42.570 1.500E-01 0.500 F -0.346 -0.142 +16° 48' 06.30" 1.000E-01 0.500 F 0.287 0.015 o 691 0.29 Yes No
2012TM139 O C 2012-12-05.23519 1.000E-05 02:35:06.600 1.500E-01 0.500 F -0.221 -0.364 +22° 20' 14.60" 1.000E-01 0.500 F 0.288 -0.412 o 691 1.10 Yes No
2006XA O C H 2012-12-05.23779 1.000E-05 02:35:32.010 1.500E-01 0.500 F -0.312 0.648 +20° 38' 36.70" 1.000E-01 0.500 F 0.309 -1.100 o 691 2.56 Yes No
2001JW2 O C 2012-12-05.24299 1.000E-05 02:38:48.060 1.500E-01 0.500 F -0.346 0.029 +16° 46' 52.10" 1.000E-01 0.500 F 0.287 -0.073 o 691 0.16 Yes No
2006WN1 O C 2012-12-06.14468 1.000E-05 03:21:42.310 1.500E-01 0.500 F -0.214 -0.252 +17° 34' 00.20" 1.000E-01 0.500 F 0.360 0.043 o 691 0.51 Yes No
2006WN1 O C 2012-12-06.21192 1.000E-05 03:21:39.600 1.500E-01 0.500 F -0.214 -0.176 +17° 33' 36.10" 1.000E-01 0.500 F 0.360 -0.004 o 691 0.35 Yes No
2006WN1 O C 2012-12-06.27601 1.000E-05 03:21:37.000 1.500E-01 0.500 F -0.214 -0.200 +17° 33' 12.80" 1.000E-01 0.500 F 0.360 0.043 o 691 0.41 Yes No
2008YU32 O C H 2012-12-06.29758 1.000E-05 07:08:10.750 1.500E-01 0.500 F -0.093 1.031 +18° 00' 36.20" 1.000E-01 0.500 F 0.188 -1.130 o 691 3.08 Yes No
2008YU32 O C H 2012-12-06.32238 1.000E-05 07:08:06.860 1.500E-01 0.500 F -0.093 0.501 +18° 00' 38.40" 1.000E-01 0.500 F 0.188 -0.784 o 691 1.87 Yes No
1997SE5 O C 2012-12-06.45337 1.000E-05 08:06:03.400 1.500E-01 0.500 F 0.000 0.128 +20° 19' 21.20" 1.000E-01 0.500 F 0.244 -0.270 o 691 0.60 Yes No
1997SE5 O C 2012-12-06.47111 1.000E-05 08:06:02.650 1.500E-01 0.500 F 0.000 -0.490 +20° 19' 23.20" 1.000E-01 0.500 F 0.244 0.239 o 691 1.09 Yes No
1997SE5 O C 2012-12-06.48881 1.000E-05 08:06:01.950 1.500E-01 0.500 F 0.000 -0.429 +20° 19' 24.50" 1.000E-01 0.500 F 0.244 0.064 o 691 0.87 Yes No
Mithra O C 2012-12-07.47278 1.000E-05 08:26:14.710 1.500E-01 0.500 F 0.050 -0.371 +21° 05' 09.50" 1.000E-01 0.500 F 0.262 -0.041 o 691 0.75 Yes No
2012XF17 O C 2012-12-07.47278 1.000E-05 08:19:32.280 1.500E-01 0.500 F -0.025 -0.256 +21° 15' 59.90" 1.000E-01 0.500 F 0.243 0.138 20.3 V 0.70 0.25 o 691 0.60 Yes Yes
Mithra O C 2012-12-07.49048 1.000E-05 08:26:14.290 1.500E-01 0.500 F 0.050 -0.330 +21° 05' 12.20" 1.000E-01 0.500 F 0.262 -0.137 o 691 0.72 Yes No
2012XF17 O C 2012-12-07.49048 1.000E-05 08:19:34.360 1.500E-01 0.500 F -0.025 -0.242 +21° 15' 47.50" 1.000E-01 0.500 F 0.243 0.342 20.0 V 0.70 -0.05 o 691 0.86 Yes Yes
Mithra O C 2012-12-07.50818 1.000E-05 08:26:13.860 1.500E-01 0.500 F 0.050 -0.433 +21° 05' 15.30" 1.000E-01 0.500 F 0.262 0.182 o 691 0.94 Yes No
2012XF17 O C 2012-12-07.50818 1.000E-05 08:19:36.420 1.500E-01 0.500 F -0.025 -0.585 +21° 15' 34.40" 1.000E-01 0.500 F 0.243 -0.031 20.2 V 0.70 0.15 o 691 1.20 Yes Yes
1993VD O C H 2012-12-08.26451 1.000E-05 06:51:56.160 1.500E-01 0.500 F -0.072 0.337 +29° 58' 00.10" 1.000E-01 0.500 F 0.202 -0.757 o 691 1.66 Yes No
2011DL19 O C H 2012-12-08.27703 1.000E-05 07:11:53.840 1.500E-01 0.500 F -0.124 -0.073 +28° 38' 09.30" 1.000E-01 0.500 F 0.194 -0.541 o 691 1.10 Yes No
1993VD O C H 2012-12-08.28221 1.000E-05 06:51:51.800 1.500E-01 0.500 F -0.072 0.205 +29° 58' 12.50" 1.000E-01 0.500 F 0.202 -0.453 o 691 1.00 Yes No
2011DL19 O C H 2012-12-08.29474 1.000E-05 07:11:52.150 1.500E-01 0.500 F -0.124 -0.274 +28° 37' 48.70" 1.000E-01 0.500 F 0.194 -1.072 o 691 2.22 Yes No
1993VD O C H 2012-12-08.29992 1.000E-05 06:51:47.390 1.500E-01 0.500 F -0.072 -0.359 +29° 58' 24.70" 1.000E-01 0.500 F 0.202 -0.254 o 691 0.88 Yes No
2011DL19 O C H 2012-12-08.31244 1.000E-05 07:11:50.460 1.500E-01 0.500 F -0.124 -0.395 +28° 37' 28.60" 1.000E-01 0.500 F 0.194 -1.054 o 691 2.26 Yes No
2007BM8 O C 2012-12-08.38045 1.000E-05 07:33:18.420 1.500E-01 0.500 F 0.013 -0.773 +29° 03' 43.40" 1.000E-01 0.500 F 0.232 0.708 21.4 V 0.70 -0.17 o 691 2.11 Yes Yes
2007BM8 O C 2012-12-08.39832 1.000E-05 07:33:16.780 1.500E-01 0.500 F 0.013 -0.324 +29° 03' 57.30" 1.000E-01 0.500 F 0.232 -0.118 21.3 V 0.70 -0.27 o 691 0.69 Yes Yes
2007BM8 O C 2012-12-08.41683 1.000E-05 07:33:15.070 1.500E-01 0.500 F 0.013 0.015 +29° 04' 12.40" 1.000E-01 0.500 F 0.232 -0.238 21.2 V 0.70 -0.37 o 691 0.48 Yes Yes
2012XS93 O C 2012-12-08.43885 1.000E-05 08:42:18.450 1.500E-01 0.500 F -0.026 -0.869 +26° 47' 57.10" 1.000E-01 0.500 F 0.258 0.193 21.4 V 0.70 -0.35 o 691 1.79 Yes Yes
2007SV11 O C H 2012-12-08.44928 1.000E-05 08:36:17.520 1.500E-01 0.500 F -0.004 0.113 +24° 34' 42.10" 1.000E-01 0.500 F 0.305 -1.244 o 691 2.51 Yes No
2012XS93 O C 2012-12-08.45690 1.000E-05 08:42:17.610 1.500E-01 0.500 F -0.026 0.171 +26° 47' 55.20" 1.000E-01 0.500 F 0.258 -0.358 21.2 V 0.70 -0.55 o 691 0.80 Yes Yes
2007SV11 O C H 2012-12-08.46707 1.000E-05 08:36:16.260 1.500E-01 0.500 F -0.004 -0.039 +24° 34' 37.50" 1.000E-01 0.500 F 0.305 -0.995 o 691 2.00 Yes No
2012XS93 O C 2012-12-08.47468 1.000E-05 08:42:16.750 1.500E-01 0.500 F -0.026 0.784 +26° 47' 53.90" 1.000E-01 0.500 F 0.258 -0.279 20.9 V 0.70 -0.85 o 691 1.67 Yes Yes
2007SV11 O C H 2012-12-08.48482 1.000E-05 08:36:15.010 1.500E-01 0.500 F -0.004 -0.087 +24° 34' 32.40" 1.000E-01 0.500 F 0.305 -1.231 o 691 2.48 Yes No
2006WN1 O C 2012-12-10.10788 1.000E-05 03:19:38.550 1.500E-01 0.500 F -0.260 -0.608 +17° 11' 58.80" 1.000E-01 0.500 F 0.314 -0.036 20.1 V 0.70 -0.26 o 691 1.22 Yes Yes
2006WN1 O C 2012-12-10.16586 1.000E-05 03:19:36.850 1.500E-01 0.500 F -0.260 -0.510 +17° 11' 42.10" 1.000E-01 0.500 F 0.314 0.144 20.5 V 0.70 0.13 o 691 1.06 Yes Yes
2006WN1 O C 2012-12-10.21100 1.000E-05 03:19:35.460 1.500E-01 0.500 F -0.260 -1.121 +17° 11' 28.40" 1.000E-01 0.500 F 0.314 -0.217 20.1 V 0.70 -0.27 o 691 2.29 Yes Yes
1997SE5 O C 2012-12-10.35886 1.000E-05 08:03:23.150 1.500E-01 0.500 F -0.014 -0.244 +20° 25' 18.60" 1.000E-01 0.500 F 0.229 0.024 20.0 V 0.70 0.16 o 691 0.49 Yes Yes
1997SE5 O C 2012-12-10.37656 1.000E-05 08:03:22.370 1.500E-01 0.500 F -0.014 -0.031 +20° 25' 20.00" 1.000E-01 0.500 F 0.229 -0.346 20.4 V 0.70 0.56 o 691 0.70 Yes Yes
1997SE5 O C 2012-12-10.39425 1.000E-05 08:03:21.560 1.500E-01 0.500 F -0.014 -0.229 +20° 25' 22.00" 1.000E-01 0.500 F 0.229 -0.102 20.1 V 0.70 0.26 o 691 0.50 Yes Yes
2012XD112 O C 2012-12-10.40498 1.000E-05 07:59:58.610 1.500E-01 0.500 F 0.025 0.063 +15° 42' 40.70" 1.000E-01 0.500 F 0.168 -0.357 19.2 V 0.70 -0.19 o 691 0.73 Yes Yes

[1-200] [201-400] [401-600] [601-800] [801-1000] [1001-1200] [1201-1400] [1401-1600] [1601-1800] [1801-2000] [2001-2200] [2201-2400] [2401-2600] [2601-2800] [2801-3000] [3001-3200] [3201-3400] [3401-3600] [3601-3800] [3801-4000] [4001-4200] [4201-4400] [4401-4600] [4601-4800] [4801-5000] [5001-5200] [5201-5400] [5401-5600] [5601-5800] [5801-6000] [6001-6200] [6201-6400] [6401-6600] [6601-6800] [6801-7000] [7001-7200] [7201-7400] [7401-7600] [7601-7800] [7801-8000] [8001-8200] [8201-8400] [8401-8600] [8601-8800] [8801-9000] [9001-9200] [9201-9400] [9401-9600] [9601-9800] [9801-10000] [10001-10200] [10201-10400] [10401-10600] [10601-10800] [10801-11000] [11001-11200] [11201-11400] [11401-11600] [11601-11800] [11801-12000] [12001-12200] [12201-12400] [12401-12600] [12601-12800] [12801-13000] [13001-13200] [13201-13400] [13401-13600] [13601-13800] [13801-14000] [14001-14200] [14201-14400] [14401-14600] [14601-14800] [14801-15000] [15001-15200] [15201-15400] [15401-15600] [15601-15800] [15801-16000] [16001-16200] [16201-16400] [16401-16600] [16601-16800] [16801-17000] [17001-17200] [17201-17400] [17401-17600] [17601-17800] [17801-18000] [18001-18200] [18201-18400] [18401-18600] [18601-18800] [18801-19000] [19001-19200] [19201-19400] [19401-19600] [19601-19800] [19801-20000] [20001-20200] [20201-20400] [20401-20600] [20601-20800] [20801-21000] [21001-21200] [21201-21400] [21401-21600] [21601-21800] [21801-22000] [22001-22200] [22201-22400] [22401-22600] [22601-22800] [22801-23000] [23001-23200] [23201-23400] [23401-23600] [23601-23800] [23801-24000] [24001-24200] [24201-24400] [24401-24600] [24601-24800] [24801-25000] [25001-25200] [25201-25400] [25401-25600] [25601-25800] [25801-26000] [26001-26200] [26201-26400] [26401-26600] [26601-26800] [26801-27000] [27001-27200] [27201-27400] [27401-27600] [27601-27800] [27801-28000] [28001-28200] [28201-28400] [28401-28600] [28601-28800] [28801-29000] [29001-29200] [29201-29400] [29401-29600] [29601-29800] [29801-30000] [30001-30200] [30201-30400] [30401-30600] [30601-30800] [30801-31000] [31001-31200] [31201-31400] [31401-31600] [31601-31800] [31801-32000] [32001-32200] [32201-32400] [32401-32600] [32601-32800] [32801-33000] [33001-33200] [33201-33400] [33401-33600] [33601-33800] [33801-34000] [34001-34200] [34201-34400] [34401-34600] [34601-34800] [34801-35000] [35001-35200] [35201-35400] [35401-35600] [35601-35800] [35801-36000] [36001-36200] [36201-36400] [36401-36600] [36601-36800] [36801-37000] [37001-37200] [37201-37400] [37401-37600] [37601-37800] [37801-38000] [38001-38200] [38201-38400] [38401-38600] [38601-38800] [38801-39000] [39001-39200] [39201-39400] [39401-39600] [39601-39800] [39801-40000] [40001-40200] [40201-40400] [40401-40600] [40601-40800] [40801-41000] [41001-41200] [41201-41400] [41401-41600] [41601-41800] [41801-42000] [42001-42200] [42201-42400] [42401-42600] [42601-42800] [42801-43000] [43001-43200] [43201-43400] [43401-43600] [43601-43800] [43801-44000] [44001-44200] [44201-44400] [44401-44600] [44601-44800] [44801-45000] [45001-45200] [45201-45400] [45401-45600] [45601-45800] [45801-46000] [46001-46200] [46201-46400] [46401-46600] [46601-46800] [46801-47000] [47001-47200] [47201-47400] [47401-47600] [47601-47800] [47801-48000] [48001-48200] [48201-48400] [48401-48600] [48601-48800] [48801-49000] [49001-49200] [49201-49400] [49401-49600] [49601-49800] [49801-50000] [50001-50200] [50201-50388]